sensor_id;sensor_type;location;lat;lon;timestamp;P1;durP1;ratioP1;P2;durP2;ratioP2
3083;SDS011;1552;51.952;7.618;2023-04-25T00:01:02;23.00;;;6.70;;
3083;SDS011;1552;51.952;7.618;2023-04-25T00:03:29;18.83;;;6.40;;
3083;SDS011;1552;51.952;7.618;2023-04-25T00:05:56;19.13;;;7.00;;
3083;SDS011;1552;51.952;7.618;2023-04-25T00:08:23;17.70;;;6.40;;
3083;SDS011;1552;51.952;7.618;2023-04-25T00:10:51;16.30;;;6.33;;
3083;SDS011;1552;51.952;7.618;2023-04-25T00:13:17;17.80;;;6.80;;
3083;SDS011;1552;51.952;7.618;2023-04-25T00:15:44;16.10;;;6.37;;
3083;SDS011;1552;51.952;7.618;2023-04-25T00:18:13;17.20;;;6.57;;
3083;SDS011;1552;51.952;7.618;2023-04-25T00:20:39;15.37;;;6.00;;
3083;SDS011;1552;51.952;7.618;2023-04-25T00:23:11;19.67;;;6.20;;
3083;SDS011;1552;51.952;7.618;2023-04-25T00:25:37;15.63;;;6.63;;
3083;SDS011;1552;51.952;7.618;2023-04-25T00:28:05;18.40;;;6.57;;
3083;SDS011;1552;51.952;7.618;2023-04-25T00:30:31;15.63;;;6.37;;
3083;SDS011;1552;51.952;7.618;2023-04-25T00:32:58;16.70;;;7.03;;
3083;SDS011;1552;51.952;7.618;2023-04-25T00:35:24;13.63;;;5.53;;
3083;SDS011;1552;51.952;7.618;2023-04-25T00:37:50;17.27;;;6.23;;
3083;SDS011;1552;51.952;7.618;2023-04-25T00:40:17;16.37;;;5.83;;
3083;SDS011;1552;51.952;7.618;2023-04-25T00:42:43;13.93;;;6.10;;
3083;SDS011;1552;51.952;7.618;2023-04-25T00:45:12;12.70;;;6.07;;
3083;SDS011;1552;51.952;7.618;2023-04-25T00:47:39;14.30;;;6.50;;
3083;SDS011;1552;51.952;7.618;2023-04-25T00:50:06;12.37;;;5.50;;
3083;SDS011;1552;51.952;7.618;2023-04-25T00:52:33;15.60;;;5.83;;
3083;SDS011;1552;51.952;7.618;2023-04-25T00:54:59;13.17;;;5.30;;
3083;SDS011;1552;51.952;7.618;2023-04-25T00:57:26;17.47;;;5.70;;
3083;SDS011;1552;51.952;7.618;2023-04-25T00:59:53;11.80;;;5.30;;
3083;SDS011;1552;51.952;7.618;2023-04-25T01:02:21;13.20;;;4.70;;
3083;SDS011;1552;51.952;7.618;2023-04-25T01:04:48;15.50;;;5.13;;
3083;SDS011;1552;51.952;7.618;2023-04-25T01:07:14;6.53;;;4.80;;
3083;SDS011;1552;51.952;7.618;2023-04-25T01:09:41;10.53;;;4.73;;
3083;SDS011;1552;51.952;7.618;2023-04-25T01:12:07;9.97;;;4.63;;
3083;SDS011;1552;51.952;7.618;2023-04-25T01:14:33;12.80;;;4.90;;
3083;SDS011;1552;51.952;7.618;2023-04-25T01:17:00;8.30;;;4.23;;
3083;SDS011;1552;51.952;7.618;2023-04-25T01:19:28;13.63;;;4.90;;
3083;SDS011;1552;51.952;7.618;2023-04-25T01:21:56;11.80;;;5.03;;
3083;SDS011;1552;51.952;7.618;2023-04-25T01:24:22;11.20;;;5.37;;
3083;SDS011;1552;51.952;7.618;2023-04-25T01:26:49;11.77;;;4.53;;
3083;SDS011;1552;51.952;7.618;2023-04-25T01:29:15;11.07;;;4.70;;
3083;SDS011;1552;51.952;7.618;2023-04-25T01:31:42;11.13;;;4.20;;
3083;SDS011;1552;51.952;7.618;2023-04-25T01:34:09;13.00;;;4.70;;
3083;SDS011;1552;51.952;7.618;2023-04-25T01:36:35;11.67;;;4.77;;
3083;SDS011;1552;51.952;7.618;2023-04-25T01:39:03;11.90;;;4.87;;
3083;SDS011;1552;51.952;7.618;2023-04-25T01:41:29;8.90;;;4.33;;
3083;SDS011;1552;51.952;7.618;2023-04-25T01:43:56;12.80;;;5.13;;
3083;SDS011;1552;51.952;7.618;2023-04-25T01:46:22;11.33;;;4.10;;
3083;SDS011;1552;51.952;7.618;2023-04-25T01:48:49;7.23;;;4.17;;
3083;SDS011;1552;51.952;7.618;2023-04-25T01:51:15;8.93;;;4.80;;
3083;SDS011;1552;51.952;7.618;2023-04-25T01:53:41;8.77;;;4.30;;
3083;SDS011;1552;51.952;7.618;2023-04-25T01:56:10;11.23;;;4.83;;
3083;SDS011;1552;51.952;7.618;2023-04-25T01:58:36;9.87;;;4.30;;
3083;SDS011;1552;51.952;7.618;2023-04-25T02:01:02;13.20;;;4.70;;
3083;SDS011;1552;51.952;7.618;2023-04-25T02:03:29;9.17;;;3.90;;
3083;SDS011;1552;51.952;7.618;2023-04-25T02:05:55;9.33;;;3.40;;
3083;SDS011;1552;51.952;7.618;2023-04-25T02:08:21;8.70;;;3.80;;
3083;SDS011;1552;51.952;7.618;2023-04-25T02:10:48;12.00;;;3.90;;
3083;SDS011;1552;51.952;7.618;2023-04-25T02:13:15;11.73;;;4.00;;
3083;SDS011;1552;51.952;7.618;2023-04-25T02:15:42;17.77;;;4.33;;
3083;SDS011;1552;51.952;7.618;2023-04-25T02:18:08;16.90;;;4.77;;
3083;SDS011;1552;51.952;7.618;2023-04-25T02:20:35;15.17;;;4.77;;
3083;SDS011;1552;51.952;7.618;2023-04-25T02:23:02;19.97;;;4.20;;
3083;SDS011;1552;51.952;7.618;2023-04-25T02:25:28;15.20;;;4.77;;
3083;SDS011;1552;51.952;7.618;2023-04-25T02:27:54;17.40;;;4.30;;
3083;SDS011;1552;51.952;7.618;2023-04-25T02:30:22;10.60;;;3.93;;
3083;SDS011;1552;51.952;7.618;2023-04-25T02:32:48;12.70;;;3.83;;
3083;SDS011;1552;51.952;7.618;2023-04-25T02:35:15;15.40;;;4.37;;
3083;SDS011;1552;51.952;7.618;2023-04-25T02:37:42;9.57;;;4.27;;
3083;SDS011;1552;51.952;7.618;2023-04-25T02:40:08;16.37;;;4.93;;
3083;SDS011;1552;51.952;7.618;2023-04-25T02:42:35;12.93;;;4.83;;
3083;SDS011;1552;51.952;7.618;2023-04-25T02:45:01;17.67;;;4.80;;
3083;SDS011;1552;51.952;7.618;2023-04-25T02:47:29;17.93;;;4.80;;
3083;SDS011;1552;51.952;7.618;2023-04-25T02:49:56;16.07;;;4.90;;
3083;SDS011;1552;51.952;7.618;2023-04-25T02:52:22;15.73;;;4.40;;
3083;SDS011;1552;51.952;7.618;2023-04-25T02:54:49;11.73;;;4.03;;
3083;SDS011;1552;51.952;7.618;2023-04-25T02:57:16;10.87;;;3.97;;
3083;SDS011;1552;51.952;7.618;2023-04-25T02:59:42;18.50;;;4.77;;
3083;SDS011;1552;51.952;7.618;2023-04-25T03:02:09;23.03;;;5.03;;
3083;SDS011;1552;51.952;7.618;2023-04-25T03:04:37;16.40;;;4.83;;
3083;SDS011;1552;51.952;7.618;2023-04-25T03:07:03;14.47;;;4.40;;
3083;SDS011;1552;51.952;7.618;2023-04-25T03:09:30;17.40;;;4.57;;
3083;SDS011;1552;51.952;7.618;2023-04-25T03:11:56;17.83;;;4.90;;
3083;SDS011;1552;51.952;7.618;2023-04-25T03:14:22;15.23;;;4.73;;
3083;SDS011;1552;51.952;7.618;2023-04-25T03:16:49;17.63;;;4.67;;
3083;SDS011;1552;51.952;7.618;2023-04-25T03:19:15;20.93;;;5.53;;
3083;SDS011;1552;51.952;7.618;2023-04-25T03:21:43;17.90;;;5.07;;
3083;SDS011;1552;51.952;7.618;2023-04-25T03:24:10;21.37;;;5.40;;
3083;SDS011;1552;51.952;7.618;2023-04-25T03:26:37;15.70;;;4.90;;
3083;SDS011;1552;51.952;7.618;2023-04-25T03:29:03;23.10;;;5.20;;
3083;SDS011;1552;51.952;7.618;2023-04-25T03:31:29;22.00;;;4.67;;
3083;SDS011;1552;51.952;7.618;2023-04-25T03:33:56;19.00;;;5.10;;
3083;SDS011;1552;51.952;7.618;2023-04-25T03:36:22;17.73;;;4.57;;
3083;SDS011;1552;51.952;7.618;2023-04-25T03:38:50;19.13;;;4.67;;
3083;SDS011;1552;51.952;7.618;2023-04-25T03:41:16;18.50;;;5.00;;
3083;SDS011;1552;51.952;7.618;2023-04-25T03:43:42;21.10;;;4.80;;
3083;SDS011;1552;51.952;7.618;2023-04-25T03:46:09;13.37;;;5.40;;
3083;SDS011;1552;51.952;7.618;2023-04-25T03:48:35;16.30;;;5.43;;
3083;SDS011;1552;51.952;7.618;2023-04-25T03:51:02;19.10;;;4.83;;
3083;SDS011;1552;51.952;7.618;2023-04-25T03:53:28;21.27;;;5.17;;
3083;SDS011;1552;51.952;7.618;2023-04-25T03:55:56;16.80;;;4.57;;
3083;SDS011;1552;51.952;7.618;2023-04-25T03:58:22;19.83;;;5.03;;
3083;SDS011;1552;51.952;7.618;2023-04-25T04:00:49;21.23;;;5.23;;
3083;SDS011;1552;51.952;7.618;2023-04-25T04:03:15;18.17;;;6.17;;
3083;SDS011;1552;51.952;7.618;2023-04-25T04:05:42;21.90;;;5.77;;
3083;SDS011;1552;51.952;7.618;2023-04-25T04:08:08;17.20;;;4.80;;
3083;SDS011;1552;51.952;7.618;2023-04-25T04:10:34;16.23;;;4.97;;
3083;SDS011;1552;51.952;7.618;2023-04-25T04:13:02;15.77;;;5.00;;
3083;SDS011;1552;51.952;7.618;2023-04-25T04:15:29;16.97;;;4.57;;
3083;SDS011;1552;51.952;7.618;2023-04-25T04:17:57;16.77;;;5.53;;
3083;SDS011;1552;51.952;7.618;2023-04-25T04:20:27;19.30;;;6.17;;
3083;SDS011;1552;51.952;7.618;2023-04-25T04:22:53;20.50;;;5.13;;
3083;SDS011;1552;51.952;7.618;2023-04-25T04:25:20;21.63;;;5.93;;
3083;SDS011;1552;51.952;7.618;2023-04-25T04:27:46;16.30;;;4.70;;
3083;SDS011;1552;51.952;7.618;2023-04-25T04:30:14;19.87;;;5.40;;
3083;SDS011;1552;51.952;7.618;2023-04-25T04:32:40;21.30;;;4.47;;
3083;SDS011;1552;51.952;7.618;2023-04-25T04:35:07;19.40;;;4.90;;
3083;SDS011;1552;51.952;7.618;2023-04-25T04:37:34;14.27;;;4.77;;
3083;SDS011;1552;51.952;7.618;2023-04-25T04:40:01;17.83;;;4.60;;
3083;SDS011;1552;51.952;7.618;2023-04-25T04:42:31;28.77;;;5.70;;
3083;SDS011;1552;51.952;7.618;2023-04-25T04:44:58;23.87;;;5.57;;
3083;SDS011;1552;51.952;7.618;2023-04-25T04:47:27;17.93;;;5.00;;
3083;SDS011;1552;51.952;7.618;2023-04-25T04:49:57;12.47;;;4.53;;
3083;SDS011;1552;51.952;7.618;2023-04-25T04:52:23;14.13;;;4.47;;
3083;SDS011;1552;51.952;7.618;2023-04-25T04:54:50;23.23;;;5.97;;
3083;SDS011;1552;51.952;7.618;2023-04-25T04:57:16;18.37;;;5.30;;
3083;SDS011;1552;51.952;7.618;2023-04-25T04:59:42;19.70;;;5.23;;
3083;SDS011;1552;51.952;7.618;2023-04-25T05:02:08;16.80;;;5.23;;
3083;SDS011;1552;51.952;7.618;2023-04-25T05:04:36;20.63;;;5.67;;
3083;SDS011;1552;51.952;7.618;2023-04-25T05:07:02;20.77;;;5.13;;
3083;SDS011;1552;51.952;7.618;2023-04-25T05:09:29;16.60;;;5.13;;
3083;SDS011;1552;51.952;7.618;2023-04-25T05:11:55;18.13;;;5.47;;
3083;SDS011;1552;51.952;7.618;2023-04-25T05:14:22;18.77;;;4.87;;
3083;SDS011;1552;51.952;7.618;2023-04-25T05:16:48;15.40;;;4.20;;
3083;SDS011;1552;51.952;7.618;2023-04-25T05:19:14;19.80;;;5.57;;
3083;SDS011;1552;51.952;7.618;2023-04-25T05:21:42;19.40;;;5.30;;
3083;SDS011;1552;51.952;7.618;2023-04-25T05:24:09;17.47;;;4.53;;
3083;SDS011;1552;51.952;7.618;2023-04-25T05:26:36;16.33;;;4.80;;
3083;SDS011;1552;51.952;7.618;2023-04-25T05:29:03;17.70;;;5.90;;
3083;SDS011;1552;51.952;7.618;2023-04-25T05:31:30;16.33;;;4.60;;
3083;SDS011;1552;51.952;7.618;2023-04-25T05:33:56;19.33;;;5.03;;
3083;SDS011;1552;51.952;7.618;2023-04-25T05:36:23;26.33;;;5.20;;
3083;SDS011;1552;51.952;7.618;2023-04-25T05:38:50;18.00;;;4.83;;
3083;SDS011;1552;51.952;7.618;2023-04-25T05:41:17;14.87;;;4.53;;
3083;SDS011;1552;51.952;7.618;2023-04-25T05:43:43;22.37;;;5.83;;
3083;SDS011;1552;51.952;7.618;2023-04-25T05:46:12;14.60;;;4.67;;
3083;SDS011;1552;51.952;7.618;2023-04-25T05:48:38;14.80;;;4.97;;
3083;SDS011;1552;51.952;7.618;2023-04-25T05:51:05;17.87;;;4.80;;
3083;SDS011;1552;51.952;7.618;2023-04-25T05:53:31;24.47;;;5.63;;
3083;SDS011;1552;51.952;7.618;2023-04-25T05:55:59;14.53;;;4.00;;
3083;SDS011;1552;51.952;7.618;2023-04-25T05:58:25;18.33;;;4.80;;
3083;SDS011;1552;51.952;7.618;2023-04-25T06:00:52;12.40;;;4.57;;
3083;SDS011;1552;51.952;7.618;2023-04-25T06:03:18;16.00;;;4.40;;
3083;SDS011;1552;51.952;7.618;2023-04-25T06:05:45;16.83;;;4.10;;
3083;SDS011;1552;51.952;7.618;2023-04-25T06:08:11;13.13;;;3.70;;
3083;SDS011;1552;51.952;7.618;2023-04-25T06:10:38;19.03;;;4.93;;
3083;SDS011;1552;51.952;7.618;2023-04-25T06:13:05;21.10;;;4.33;;
3083;SDS011;1552;51.952;7.618;2023-04-25T06:15:32;19.90;;;4.93;;
3083;SDS011;1552;51.952;7.618;2023-04-25T06:17:58;17.23;;;3.93;;
3083;SDS011;1552;51.952;7.618;2023-04-25T06:20:24;13.47;;;4.37;;
3083;SDS011;1552;51.952;7.618;2023-04-25T06:22:51;15.63;;;4.27;;
3083;SDS011;1552;51.952;7.618;2023-04-25T06:25:17;13.77;;;4.17;;
3083;SDS011;1552;51.952;7.618;2023-04-25T06:27:43;14.97;;;3.77;;
3083;SDS011;1552;51.952;7.618;2023-04-25T06:30:11;18.70;;;4.37;;
3083;SDS011;1552;51.952;7.618;2023-04-25T06:32:38;17.93;;;3.80;;
3083;SDS011;1552;51.952;7.618;2023-04-25T06:35:04;18.27;;;3.93;;
3083;SDS011;1552;51.952;7.618;2023-04-25T06:37:31;12.70;;;3.67;;
3083;SDS011;1552;51.952;7.618;2023-04-25T06:39:57;17.70;;;3.97;;
3083;SDS011;1552;51.952;7.618;2023-04-25T06:42:24;12.50;;;3.47;;
3083;SDS011;1552;51.952;7.618;2023-04-25T06:44:50;14.57;;;4.00;;
3083;SDS011;1552;51.952;7.618;2023-04-25T06:47:18;13.17;;;3.60;;
3083;SDS011;1552;51.952;7.618;2023-04-25T06:49:44;12.53;;;3.67;;
3083;SDS011;1552;51.952;7.618;2023-04-25T06:52:10;23.40;;;4.03;;
3083;SDS011;1552;51.952;7.618;2023-04-25T06:54:37;19.93;;;3.77;;
3083;SDS011;1552;51.952;7.618;2023-04-25T06:57:03;15.53;;;3.10;;
3083;SDS011;1552;51.952;7.618;2023-04-25T06:59:30;10.50;;;3.50;;
3083;SDS011;1552;51.952;7.618;2023-04-25T07:01:57;12.47;;;3.40;;
3083;SDS011;1552;51.952;7.618;2023-04-25T07:04:25;13.17;;;3.30;;
3083;SDS011;1552;51.952;7.618;2023-04-25T07:06:51;12.23;;;3.60;;
3083;SDS011;1552;51.952;7.618;2023-04-25T07:09:18;13.97;;;3.63;;
3083;SDS011;1552;51.952;7.618;2023-04-25T07:11:44;10.37;;;3.13;;
3083;SDS011;1552;51.952;7.618;2023-04-25T07:14:11;11.90;;;3.43;;
3083;SDS011;1552;51.952;7.618;2023-04-25T07:16:37;9.47;;;3.20;;
3083;SDS011;1552;51.952;7.618;2023-04-25T07:19:03;13.50;;;3.70;;
3083;SDS011;1552;51.952;7.618;2023-04-25T07:21:31;14.37;;;3.70;;
3083;SDS011;1552;51.952;7.618;2023-04-25T07:23:57;12.90;;;3.77;;
3083;SDS011;1552;51.952;7.618;2023-04-25T07:26:24;13.23;;;3.30;;
3083;SDS011;1552;51.952;7.618;2023-04-25T07:28:50;12.80;;;3.20;;
3083;SDS011;1552;51.952;7.618;2023-04-25T07:31:17;16.40;;;4.13;;
3083;SDS011;1552;51.952;7.618;2023-04-25T07:33:43;10.77;;;3.00;;
3083;SDS011;1552;51.952;7.618;2023-04-25T07:36:10;9.87;;;3.07;;
3083;SDS011;1552;51.952;7.618;2023-04-25T07:38:37;16.30;;;3.53;;
3083;SDS011;1552;51.952;7.618;2023-04-25T07:41:04;12.33;;;3.80;;
3083;SDS011;1552;51.952;7.618;2023-04-25T07:43:30;13.03;;;3.50;;
3083;SDS011;1552;51.952;7.618;2023-04-25T07:45:57;9.37;;;3.20;;
3083;SDS011;1552;51.952;7.618;2023-04-25T07:48:23;9.10;;;3.17;;
3083;SDS011;1552;51.952;7.618;2023-04-25T07:50:49;14.43;;;2.77;;
3083;SDS011;1552;51.952;7.618;2023-04-25T07:53:16;8.93;;;2.43;;
3083;SDS011;1552;51.952;7.618;2023-04-25T07:55:45;8.53;;;2.97;;
3083;SDS011;1552;51.952;7.618;2023-04-25T07:58:11;8.23;;;2.90;;
3083;SDS011;1552;51.952;7.618;2023-04-25T08:00:38;12.10;;;2.80;;
3083;SDS011;1552;51.952;7.618;2023-04-25T08:03:06;14.93;;;3.20;;
3083;SDS011;1552;51.952;7.618;2023-04-25T08:05:32;13.53;;;3.17;;
3083;SDS011;1552;51.952;7.618;2023-04-25T08:07:59;11.50;;;3.23;;
3083;SDS011;1552;51.952;7.618;2023-04-25T08:10:27;10.40;;;2.50;;
3083;SDS011;1552;51.952;7.618;2023-04-25T08:12:54;10.27;;;3.20;;
3083;SDS011;1552;51.952;7.618;2023-04-25T08:15:21;13.43;;;3.30;;
3083;SDS011;1552;51.952;7.618;2023-04-25T08:17:47;14.47;;;2.73;;
3083;SDS011;1552;51.952;7.618;2023-04-25T08:20:13;12.13;;;3.13;;
3083;SDS011;1552;51.952;7.618;2023-04-25T08:22:40;15.27;;;3.40;;
3083;SDS011;1552;51.952;7.618;2023-04-25T08:25:06;7.87;;;2.77;;
3083;SDS011;1552;51.952;7.618;2023-04-25T08:27:33;13.37;;;3.17;;
3083;SDS011;1552;51.952;7.618;2023-04-25T08:30:01;19.60;;;3.73;;
3083;SDS011;1552;51.952;7.618;2023-04-25T08:32:28;8.03;;;2.70;;
3083;SDS011;1552;51.952;7.618;2023-04-25T08:34:54;10.03;;;2.77;;
3083;SDS011;1552;51.952;7.618;2023-04-25T08:37:21;5.20;;;2.57;;
3083;SDS011;1552;51.952;7.618;2023-04-25T08:39:47;11.27;;;2.40;;
3083;SDS011;1552;51.952;7.618;2023-04-25T08:42:17;7.77;;;2.90;;
3083;SDS011;1552;51.952;7.618;2023-04-25T08:44:43;12.73;;;2.60;;
3083;SDS011;1552;51.952;7.618;2023-04-25T08:47:12;14.47;;;3.03;;
3083;SDS011;1552;51.952;7.618;2023-04-25T08:49:38;9.00;;;2.43;;
3083;SDS011;1552;51.952;7.618;2023-04-25T08:52:05;11.20;;;2.30;;
3083;SDS011;1552;51.952;7.618;2023-04-25T08:54:32;5.50;;;1.70;;
3083;SDS011;1552;51.952;7.618;2023-04-25T08:57:00;8.23;;;2.73;;
3083;SDS011;1552;51.952;7.618;2023-04-25T08:59:28;5.37;;;1.77;;
3083;SDS011;1552;51.952;7.618;2023-04-25T09:01:55;9.73;;;2.80;;
3083;SDS011;1552;51.952;7.618;2023-04-25T09:04:23;7.50;;;1.93;;
3083;SDS011;1552;51.952;7.618;2023-04-25T09:06:49;7.10;;;1.93;;
3083;SDS011;1552;51.952;7.618;2023-04-25T09:09:16;9.37;;;2.30;;
3083;SDS011;1552;51.952;7.618;2023-04-25T09:11:42;7.67;;;2.53;;
3083;SDS011;1552;51.952;7.618;2023-04-25T09:14:12;10.13;;;2.40;;
3083;SDS011;1552;51.952;7.618;2023-04-25T09:19:34;5.47;;;1.80;;
3083;SDS011;1552;51.952;7.618;2023-04-25T09:22:01;6.70;;;2.07;;
3083;SDS011;1552;51.952;7.618;2023-04-25T09:24:31;6.10;;;1.50;;
3083;SDS011;1552;51.952;7.618;2023-04-25T09:26:58;7.37;;;1.70;;
3083;SDS011;1552;51.952;7.618;2023-04-25T09:29:29;8.43;;;1.90;;
3083;SDS011;1552;51.952;7.618;2023-04-25T09:32:03;3.87;;;1.73;;
3083;SDS011;1552;51.952;7.618;2023-04-25T09:34:40;8.07;;;1.90;;
3083;SDS011;1552;51.952;7.618;2023-04-25T09:37:07;7.67;;;2.17;;
3083;SDS011;1552;51.952;7.618;2023-04-25T09:39:33;8.00;;;1.60;;
3083;SDS011;1552;51.952;7.618;2023-04-25T09:42:00;7.27;;;2.07;;
3083;SDS011;1552;51.952;7.618;2023-04-25T09:44:26;5.53;;;1.83;;
3083;SDS011;1552;51.952;7.618;2023-04-25T09:46:53;5.20;;;1.60;;
3083;SDS011;1552;51.952;7.618;2023-04-25T09:49:19;3.80;;;1.60;;
3083;SDS011;1552;51.952;7.618;2023-04-25T09:51:54;9.50;;;2.13;;
3083;SDS011;1552;51.952;7.618;2023-04-25T09:54:22;7.03;;;1.20;;
3083;SDS011;1552;51.952;7.618;2023-04-25T09:56:48;2.70;;;1.60;;
3083;SDS011;1552;51.952;7.618;2023-04-25T09:59:17;6.30;;;1.50;;
3083;SDS011;1552;51.952;7.618;2023-04-25T10:01:45;4.37;;;1.63;;
3083;SDS011;1552;51.952;7.618;2023-04-25T10:04:11;10.47;;;1.70;;
3083;SDS011;1552;51.952;7.618;2023-04-25T10:06:38;3.60;;;1.27;;
3083;SDS011;1552;51.952;7.618;2023-04-25T10:09:06;6.60;;;1.70;;
3083;SDS011;1552;51.952;7.618;2023-04-25T10:11:33;6.10;;;1.73;;
3083;SDS011;1552;51.952;7.618;2023-04-25T10:14:00;6.20;;;1.80;;
3083;SDS011;1552;51.952;7.618;2023-04-25T10:16:27;6.57;;;1.60;;
3083;SDS011;1552;51.952;7.618;2023-04-25T10:18:54;6.63;;;1.73;;
3083;SDS011;1552;51.952;7.618;2023-04-25T10:21:21;5.47;;;2.00;;
3083;SDS011;1552;51.952;7.618;2023-04-25T10:23:47;5.30;;;1.90;;
3083;SDS011;1552;51.952;7.618;2023-04-25T10:26:16;4.33;;;1.63;;
3083;SDS011;1552;51.952;7.618;2023-04-25T10:31:27;8.60;;;1.80;;
3083;SDS011;1552;51.952;7.618;2023-04-25T10:33:55;4.60;;;1.83;;
3083;SDS011;1552;51.952;7.618;2023-04-25T10:36:22;7.27;;;2.00;;
3083;SDS011;1552;51.952;7.618;2023-04-25T10:38:49;4.97;;;1.70;;
3083;SDS011;1552;51.952;7.618;2023-04-25T10:41:17;6.77;;;1.90;;
3083;SDS011;1552;51.952;7.618;2023-04-25T10:43:45;6.67;;;1.80;;
3083;SDS011;1552;51.952;7.618;2023-04-25T10:46:18;10.10;;;1.60;;
3083;SDS011;1552;51.952;7.618;2023-04-25T10:48:45;4.33;;;1.60;;
3083;SDS011;1552;51.952;7.618;2023-04-25T10:51:15;8.03;;;2.07;;
3083;SDS011;1552;51.952;7.618;2023-04-25T10:53:42;9.17;;;1.80;;
3083;SDS011;1552;51.952;7.618;2023-04-25T10:56:10;6.67;;;1.90;;
3083;SDS011;1552;51.952;7.618;2023-04-25T10:58:42;6.30;;;1.70;;
3083;SDS011;1552;51.952;7.618;2023-04-25T11:01:09;5.60;;;1.57;;
3083;SDS011;1552;51.952;7.618;2023-04-25T11:03:37;6.60;;;1.50;;
3083;SDS011;1552;51.952;7.618;2023-04-25T11:06:04;8.53;;;1.80;;
3083;SDS011;1552;51.952;7.618;2023-04-25T11:08:32;4.30;;;1.43;;
3083;SDS011;1552;51.952;7.618;2023-04-25T11:11:03;6.50;;;1.90;;
3083;SDS011;1552;51.952;7.618;2023-04-25T11:13:29;7.87;;;1.50;;
3083;SDS011;1552;51.952;7.618;2023-04-25T11:15:57;4.07;;;1.77;;
3083;SDS011;1552;51.952;7.618;2023-04-25T11:18:25;4.50;;;2.00;;
3083;SDS011;1552;51.952;7.618;2023-04-25T11:20:52;3.77;;;1.53;;
3083;SDS011;1552;51.952;7.618;2023-04-25T11:23:18;6.33;;;1.80;;
3083;SDS011;1552;51.952;7.618;2023-04-25T11:25:44;9.13;;;1.70;;
3083;SDS011;1552;51.952;7.618;2023-04-25T11:28:11;2.87;;;1.50;;
3083;SDS011;1552;51.952;7.618;2023-04-25T11:30:37;4.90;;;1.83;;
3083;SDS011;1552;51.952;7.618;2023-04-25T11:33:05;6.60;;;1.87;;
3083;SDS011;1552;51.952;7.618;2023-04-25T11:35:31;6.23;;;1.97;;
3083;SDS011;1552;51.952;7.618;2023-04-25T11:37:58;7.53;;;1.80;;
3083;SDS011;1552;51.952;7.618;2023-04-25T11:40:25;5.60;;;2.07;;
3083;SDS011;1552;51.952;7.618;2023-04-25T11:42:52;6.67;;;2.03;;
3083;SDS011;1552;51.952;7.618;2023-04-25T11:45:18;5.93;;;1.70;;
3083;SDS011;1552;51.952;7.618;2023-04-25T11:47:45;5.40;;;1.20;;
3083;SDS011;1552;51.952;7.618;2023-04-25T11:50:12;4.50;;;1.27;;
3083;SDS011;1552;51.952;7.618;2023-04-25T11:52:40;3.60;;;1.00;;
3083;SDS011;1552;51.952;7.618;2023-04-25T11:55:07;3.77;;;1.00;;
3083;SDS011;1552;51.952;7.618;2023-04-25T11:57:34;6.33;;;1.70;;
3083;SDS011;1552;51.952;7.618;2023-04-25T12:00:10;2.37;;;1.03;;
3083;SDS011;1552;51.952;7.618;2023-04-25T12:02:39;3.03;;;1.20;;
3083;SDS011;1552;51.952;7.618;2023-04-25T12:05:06;3.33;;;1.07;;
3083;SDS011;1552;51.952;7.618;2023-04-25T12:07:34;7.80;;;1.60;;
3083;SDS011;1552;51.952;7.618;2023-04-25T12:10:04;4.63;;;1.13;;
3083;SDS011;1552;51.952;7.618;2023-04-25T12:12:31;3.13;;;0.90;;
3083;SDS011;1552;51.952;7.618;2023-04-25T12:15:07;3.63;;;0.90;;
3083;SDS011;1552;51.952;7.618;2023-04-25T12:17:34;4.47;;;1.30;;
3083;SDS011;1552;51.952;7.618;2023-04-25T12:20:05;2.60;;;1.23;;
3083;SDS011;1552;51.952;7.618;2023-04-25T12:22:32;6.70;;;1.17;;
3083;SDS011;1552;51.952;7.618;2023-04-25T12:25:00;4.07;;;1.13;;
3083;SDS011;1552;51.952;7.618;2023-04-25T12:27:30;3.30;;;1.27;;
3083;SDS011;1552;51.952;7.618;2023-04-25T12:29:56;2.73;;;1.20;;
3083;SDS011;1552;51.952;7.618;2023-04-25T12:32:23;4.53;;;1.23;;
3083;SDS011;1552;51.952;7.618;2023-04-25T12:34:50;3.33;;;1.40;;
3083;SDS011;1552;51.952;7.618;2023-04-25T12:37:16;6.47;;;1.43;;
3083;SDS011;1552;51.952;7.618;2023-04-25T12:39:43;3.13;;;1.20;;
3083;SDS011;1552;51.952;7.618;2023-04-25T12:42:10;5.60;;;1.87;;
3083;SDS011;1552;51.952;7.618;2023-04-25T12:44:37;4.17;;;1.50;;
3083;SDS011;1552;51.952;7.618;2023-04-25T12:47:04;3.93;;;1.30;;
3083;SDS011;1552;51.952;7.618;2023-04-25T12:49:30;3.83;;;1.30;;
3083;SDS011;1552;51.952;7.618;2023-04-25T12:51:56;3.67;;;1.37;;
3083;SDS011;1552;51.952;7.618;2023-04-25T12:54:23;6.67;;;1.67;;
3083;SDS011;1552;51.952;7.618;2023-04-25T12:56:49;8.27;;;2.07;;
3083;SDS011;1552;51.952;7.618;2023-04-25T12:59:17;5.83;;;1.60;;
3083;SDS011;1552;51.952;7.618;2023-04-25T13:01:45;5.77;;;1.40;;
3083;SDS011;1552;51.952;7.618;2023-04-25T13:04:11;3.43;;;1.40;;
3083;SDS011;1552;51.952;7.618;2023-04-25T13:06:37;3.33;;;1.50;;
3083;SDS011;1552;51.952;7.618;2023-04-25T13:09:04;5.10;;;1.40;;
3083;SDS011;1552;51.952;7.618;2023-04-25T13:11:31;6.23;;;1.60;;
3083;SDS011;1552;51.952;7.618;2023-04-25T13:13:58;5.10;;;1.93;;
3083;SDS011;1552;51.952;7.618;2023-04-25T13:16:26;6.00;;;1.57;;
3083;SDS011;1552;51.952;7.618;2023-04-25T13:18:53;6.23;;;1.40;;
3083;SDS011;1552;51.952;7.618;2023-04-25T13:21:21;5.80;;;1.90;;
3083;SDS011;1552;51.952;7.618;2023-04-25T13:23:47;4.27;;;2.03;;
3083;SDS011;1552;51.952;7.618;2023-04-25T13:26:13;2.90;;;1.40;;
3083;SDS011;1552;51.952;7.618;2023-04-25T13:28:40;3.37;;;1.47;;
3083;SDS011;1552;51.952;7.618;2023-04-25T13:31:06;3.40;;;1.20;;
3083;SDS011;1552;51.952;7.618;2023-04-25T13:33:34;3.03;;;1.53;;
3083;SDS011;1552;51.952;7.618;2023-04-25T13:36:00;7.70;;;1.50;;
3083;SDS011;1552;51.952;7.618;2023-04-25T13:38:27;3.87;;;1.30;;
3083;SDS011;1552;51.952;7.618;2023-04-25T13:40:53;6.33;;;1.93;;
3083;SDS011;1552;51.952;7.618;2023-04-25T13:43:20;4.77;;;1.70;;
3083;SDS011;1552;51.952;7.618;2023-04-25T13:45:47;4.53;;;1.70;;
3083;SDS011;1552;51.952;7.618;2023-04-25T13:48:13;6.20;;;1.50;;
3083;SDS011;1552;51.952;7.618;2023-04-25T13:50:41;2.80;;;1.20;;
3083;SDS011;1552;51.952;7.618;2023-04-25T13:53:07;3.70;;;1.40;;
3083;SDS011;1552;51.952;7.618;2023-04-25T13:55:34;3.87;;;1.57;;
3083;SDS011;1552;51.952;7.618;2023-04-25T13:58:00;4.00;;;1.70;;
3083;SDS011;1552;51.952;7.618;2023-04-25T14:00:32;2.83;;;1.30;;
3083;SDS011;1552;51.952;7.618;2023-04-25T14:02:58;4.70;;;1.73;;
3083;SDS011;1552;51.952;7.618;2023-04-25T14:05:24;6.07;;;1.70;;
3083;SDS011;1552;51.952;7.618;2023-04-25T14:07:52;3.83;;;1.20;;
3083;SDS011;1552;51.952;7.618;2023-04-25T14:10:18;4.60;;;1.47;;
3083;SDS011;1552;51.952;7.618;2023-04-25T14:12:45;3.30;;;1.17;;
3083;SDS011;1552;51.952;7.618;2023-04-25T14:15:11;4.40;;;1.40;;
3083;SDS011;1552;51.952;7.618;2023-04-25T14:17:38;4.77;;;1.50;;
3083;SDS011;1552;51.952;7.618;2023-04-25T14:20:05;6.37;;;1.50;;
3083;SDS011;1552;51.952;7.618;2023-04-25T14:22:32;10.50;;;1.90;;
3083;SDS011;1552;51.952;7.618;2023-04-25T14:25:01;3.50;;;1.37;;
3083;SDS011;1552;51.952;7.618;2023-04-25T14:27:28;7.60;;;1.97;;
3083;SDS011;1552;51.952;7.618;2023-04-25T14:29:54;3.20;;;1.43;;
3083;SDS011;1552;51.952;7.618;2023-04-25T14:32:21;5.40;;;1.43;;
3083;SDS011;1552;51.952;7.618;2023-04-25T14:34:47;5.20;;;1.53;;
3083;SDS011;1552;51.952;7.618;2023-04-25T14:37:14;4.20;;;1.50;;
3083;SDS011;1552;51.952;7.618;2023-04-25T14:39:41;6.93;;;1.47;;
3083;SDS011;1552;51.952;7.618;2023-04-25T14:42:08;9.20;;;1.67;;
3083;SDS011;1552;51.952;7.618;2023-04-25T14:44:36;6.43;;;1.80;;
3083;SDS011;1552;51.952;7.618;2023-04-25T14:47:02;6.43;;;1.50;;
3083;SDS011;1552;51.952;7.618;2023-04-25T14:49:28;3.90;;;1.63;;
3083;SDS011;1552;51.952;7.618;2023-04-25T14:51:55;5.57;;;2.10;;
3083;SDS011;1552;51.952;7.618;2023-04-25T14:54:21;4.23;;;1.60;;
3083;SDS011;1552;51.952;7.618;2023-04-25T14:56:48;5.73;;;1.30;;
3083;SDS011;1552;51.952;7.618;2023-04-25T14:59:16;4.30;;;1.07;;
3083;SDS011;1552;51.952;7.618;2023-04-25T15:01:42;4.43;;;1.37;;
3083;SDS011;1552;51.952;7.618;2023-04-25T15:04:09;4.37;;;1.30;;
3083;SDS011;1552;51.952;7.618;2023-04-25T15:06:35;2.93;;;1.50;;
3083;SDS011;1552;51.952;7.618;2023-04-25T15:09:02;4.20;;;1.30;;
3083;SDS011;1552;51.952;7.618;2023-04-25T15:11:29;5.83;;;1.30;;